createdAt,value
2022-09-09T07:33:26.274Z,995.30
2022-09-09T07:34:26.313Z,995.27
2022-09-09T07:35:26.254Z,995.26
2022-09-09T07:36:28.857Z,995.26
2022-09-09T07:37:26.209Z,995.29
2022-09-09T07:38:26.223Z,995.30
2022-09-09T07:39:26.181Z,995.25
2022-09-09T07:40:26.196Z,995.24
2022-09-09T07:41:26.190Z,995.27
2022-09-09T07:42:26.136Z,995.27
2022-09-09T07:43:26.125Z,995.26
2022-09-09T07:44:26.131Z,995.28
2022-09-09T07:45:26.127Z,995.28
2022-09-09T07:46:26.178Z,995.33
2022-09-09T07:47:26.077Z,995.26
2022-09-09T07:48:26.088Z,995.29
2022-09-09T07:49:30.988Z,995.27
2022-09-09T07:50:26.063Z,995.29
2022-09-09T07:51:26.032Z,995.34
2022-09-09T07:52:26.064Z,995.31
2022-09-09T07:53:25.994Z,995.31
2022-09-09T07:54:25.990Z,995.29
2022-09-09T07:55:25.972Z,995.31
2022-09-09T07:56:25.968Z,995.30
2022-09-09T07:57:25.963Z,995.28
2022-09-09T07:58:26.117Z,995.26
2022-09-09T07:59:25.922Z,995.29
2022-09-09T08:00:25.911Z,995.28
2022-09-09T08:01:25.986Z,995.28
2022-09-09T08:02:25.889Z,995.29
2022-09-09T08:03:25.924Z,995.30
2022-09-09T08:04:25.868Z,995.30
2022-09-09T08:05:25.860Z,995.35
2022-09-09T08:06:25.841Z,995.30
2022-09-09T08:07:25.828Z,995.29
2022-09-09T08:08:25.841Z,995.34
2022-09-09T08:09:25.818Z,995.31
2022-09-09T08:10:25.818Z,995.29
2022-09-09T08:11:25.810Z,995.28
2022-09-09T08:12:25.797Z,995.29
2022-09-09T08:13:25.785Z,995.29
2022-09-09T08:14:25.762Z,995.28
2022-09-09T08:15:25.729Z,995.31
2022-09-09T08:16:25.726Z,995.34
2022-09-09T08:17:25.709Z,995.28
2022-09-09T08:18:25.769Z,995.31
2022-09-09T08:19:25.715Z,995.32
2022-09-09T08:20:25.679Z,995.32
2022-09-09T08:21:25.711Z,995.28
2022-09-09T08:22:25.656Z,995.29
2022-09-09T08:23:25.652Z,995.31
2022-09-09T08:24:25.638Z,995.32
2022-09-09T08:25:25.618Z,995.33
2022-09-09T08:26:25.611Z,995.36
2022-09-09T08:27:25.593Z,995.30
2022-09-09T08:28:25.656Z,995.34
2022-09-09T08:29:25.583Z,995.33
2022-09-09T08:30:25.561Z,995.30
2022-09-09T08:31:25.552Z,995.30
2022-09-09T08:32:25.539Z,995.32
2022-09-09T08:33:25.527Z,995.33
2022-09-09T08:34:25.562Z,995.41
2022-09-09T08:35:25.506Z,995.40
2022-09-09T08:36:25.495Z,995.45
2022-09-09T08:37:25.478Z,995.43
2022-09-09T08:38:25.506Z,995.51
2022-09-09T08:39:25.478Z,995.48
2022-09-09T08:40:25.453Z,995.46
2022-09-09T08:41:25.459Z,995.48
2022-09-09T08:42:25.429Z,995.46
2022-09-09T08:43:25.426Z,995.49
2022-09-09T08:44:25.411Z,995.50
2022-09-09T08:45:25.438Z,995.49
2022-09-09T08:46:25.495Z,995.51
2022-09-09T08:47:25.368Z,995.55
2022-09-09T08:48:25.372Z,995.54
2022-09-09T08:49:25.378Z,995.51
2022-09-09T08:50:25.357Z,995.53
2022-09-09T08:51:25.325Z,995.54
2022-09-09T08:52:25.347Z,995.56
2022-09-09T08:53:25.304Z,995.52
2022-09-09T08:54:48.505Z,995.58
2022-09-09T08:55:25.293Z,995.56
2022-09-09T08:56:25.277Z,995.58
2022-09-09T08:57:25.258Z,995.56
2022-09-09T08:58:25.249Z,995.56
2022-09-09T08:59:25.240Z,995.56
2022-09-09T09:00:25.240Z,995.57
2022-09-09T09:01:25.296Z,995.56
2022-09-09T09:02:25.230Z,995.54
2022-09-09T09:03:25.196Z,995.51
2022-09-09T09:04:25.271Z,995.46
2022-09-09T09:05:25.477Z,995.52
2022-09-09T09:06:25.166Z,995.53
2022-09-09T09:07:26.091Z,995.49
2022-09-09T09:08:25.145Z,995.50
2022-09-09T09:09:25.130Z,995.51
2022-09-09T09:10:41.199Z,995.46
2022-09-09T09:11:25.146Z,995.50
2022-09-09T09:12:25.176Z,995.48
2022-09-09T09:13:25.092Z,995.47
2022-09-09T09:14:25.103Z,995.46
2022-09-09T09:15:26.430Z,995.47
2022-09-09T09:16:25.058Z,995.49
2022-09-09T09:17:25.046Z,995.50
2022-09-09T09:18:25.061Z,995.49
2022-09-09T09:19:25.038Z,995.53
2022-09-09T09:20:25.016Z,995.48
2022-09-09T09:21:25.003Z,995.52
2022-09-09T09:22:24.994Z,995.52
2022-09-09T09:23:25.048Z,995.51
2022-09-09T09:24:24.972Z,995.53
2022-09-09T09:25:24.958Z,995.52
2022-09-09T09:26:24.952Z,995.48
2022-09-09T09:27:24.940Z,995.45
2022-09-09T09:28:35.493Z,995.44
